createdAt,value
2023-02-16T00:04:12.168Z,97.17
2023-02-16T00:09:12.101Z,95.76
2023-02-16T00:14:12.032Z,95.80
2023-02-16T00:19:11.962Z,96.84
2023-02-16T00:24:11.908Z,97.89
2023-02-16T00:29:11.859Z,97.89
2023-02-16T00:34:11.772Z,97.47
2023-02-16T00:39:11.702Z,97.05
2023-02-16T00:44:11.648Z,97.58
2023-02-16T00:49:11.545Z,98.52
2023-02-16T00:54:11.541Z,97.27
2023-02-16T00:59:11.447Z,96.37
2023-02-16T01:04:11.449Z,97.10
2023-02-16T01:09:29.573Z,97.67
2023-02-16T01:14:22.088Z,98.46
2023-02-16T01:19:21.917Z,98.04
2023-02-16T01:24:21.865Z,96.83
2023-02-16T01:29:21.790Z,97.67
2023-02-16T01:34:21.726Z,98.24
2023-02-16T01:39:21.659Z,98.24
2023-02-16T01:44:21.622Z,99.07
2023-02-16T01:49:21.572Z,99.28
2023-02-16T01:54:21.489Z,99.24
2023-02-16T01:59:21.437Z,98.02
2023-02-16T02:04:21.345Z,98.34
2023-02-16T02:09:21.303Z,98.55
2023-02-16T02:14:21.222Z,98.97
2023-02-16T02:19:21.165Z,98.65
2023-02-16T02:24:21.093Z,98.65
2023-02-16T02:29:21.060Z,98.38
2023-02-16T02:34:20.977Z,98.80
2023-02-16T02:39:20.927Z,99.11
2023-02-16T02:44:20.857Z,98.59
2023-02-16T02:49:20.787Z,98.49
2023-02-16T02:54:20.714Z,98.64
2023-02-16T02:59:20.641Z,98.85
2023-02-16T03:04:20.618Z,99.68
2023-02-16T03:09:20.587Z,99.48
2023-02-16T03:14:20.466Z,99.27
2023-02-16T03:19:20.410Z,99.16
2023-02-16T03:24:20.329Z,99.05
2023-02-16T03:29:20.285Z,99.58
2023-02-16T03:34:20.169Z,99.05
2023-02-16T03:39:20.129Z,98.79
2023-02-16T03:44:20.067Z,98.89
2023-02-16T03:49:20.004Z,99.73
2023-02-16T03:54:19.931Z,99.63
2023-02-16T03:59:19.875Z,99.00
2023-02-16T04:04:19.839Z,98.68
2023-02-16T04:09:19.777Z,98.58
2023-02-16T04:14:19.712Z,98.94
2023-02-16T04:19:19.630Z,99.25
2023-02-16T04:24:19.550Z,99.35
2023-02-16T04:29:19.482Z,99.88
2023-02-16T04:34:19.415Z,99.52
2023-02-16T04:39:19.372Z,99.04
2023-02-16T04:44:19.331Z,98.94
2023-02-16T04:49:19.231Z,99.25
2023-02-16T04:54:19.166Z,99.61
2023-02-16T04:59:19.138Z,99.99
2023-02-16T05:04:19.061Z,99.99
2023-02-16T05:09:18.982Z,99.99
2023-02-16T05:14:18.910Z,99.84
2023-02-16T05:19:34.859Z,99.99
2023-02-16T05:24:28.578Z,99.99
2023-02-16T05:29:27.186Z,99.99
2023-02-16T05:34:27.138Z,99.99
2023-02-16T05:39:27.079Z,99.99
2023-02-16T05:44:27.010Z,99.99
2023-02-16T05:49:26.927Z,99.99
2023-02-16T05:54:26.914Z,99.99
2023-02-16T05:59:26.811Z,99.99
2023-02-16T06:04:26.757Z,99.99
2023-02-16T06:09:26.706Z,99.99
2023-02-16T06:14:26.662Z,99.99
2023-02-16T06:19:26.593Z,99.99
2023-02-16T06:24:26.488Z,99.99
2023-02-16T06:29:26.450Z,99.99
2023-02-16T06:34:26.374Z,99.99
2023-02-16T06:39:26.318Z,99.99
2023-02-16T06:44:26.236Z,99.99
2023-02-16T06:49:27.800Z,99.99
2023-02-16T06:54:26.224Z,99.99
2023-02-16T06:59:26.029Z,99.99
2023-02-16T07:04:25.986Z,99.99
2023-02-16T07:09:25.947Z,99.99
2023-02-16T07:14:25.861Z,99.99
2023-02-16T07:19:25.779Z,99.99
2023-02-16T07:24:25.750Z,99.99
2023-02-16T07:29:25.686Z,99.99
2023-02-16T07:34:25.631Z,99.99
2023-02-16T07:39:25.519Z,99.99
2023-02-16T07:44:25.484Z,99.99
2023-02-16T07:49:25.393Z,99.99
2023-02-16T07:54:25.363Z,99.99
2023-02-16T07:59:25.260Z,99.41
2023-02-16T08:04:25.192Z,97.03
2023-02-16T08:09:25.132Z,95.17
2023-02-16T08:14:25.086Z,93.83
2023-02-16T08:19:24.975Z,90.23
2023-02-16T08:24:24.977Z,82.26
2023-02-16T08:29:24.892Z,80.22
2023-02-16T08:34:24.837Z,85.39
2023-02-16T08:39:24.760Z,87.86
2023-02-16T08:44:24.700Z,89.67
2023-02-16T08:49:24.678Z,89.62
2023-02-16T08:54:24.761Z,88.23
2023-02-16T08:59:26.569Z,86.22
2023-02-16T09:04:24.436Z,85.14
2023-02-16T09:09:24.518Z,84.48
2023-02-16T09:14:24.303Z,86.25
2023-02-16T09:19:24.245Z,85.11
2023-02-16T09:24:24.166Z,84.96
2023-02-16T09:29:24.103Z,87.53
2023-02-16T09:34:24.720Z,88.51
2023-02-16T09:39:23.964Z,90.58
2023-02-16T09:44:23.940Z,90.89
2023-02-16T09:49:23.818Z,90.85
2023-02-16T09:54:23.767Z,89.42
2023-02-16T09:59:23.715Z,87.51
2023-02-16T10:04:23.636Z,88.51
2023-02-16T10:09:23.547Z,87.00
2023-02-16T10:14:23.538Z,84.38
2023-02-16T10:19:23.414Z,83.01
2023-02-16T10:24:23.410Z,74.15
2023-02-16T10:29:23.267Z,77.72
2023-02-16T10:34:23.532Z,71.63
2023-02-16T10:39:23.154Z,63.89
2023-02-16T10:44:23.095Z,59.16
2023-02-16T10:49:23.016Z,61.57
2023-02-16T10:54:22.988Z,63.09
2023-02-16T10:59:23.082Z,55.70
2023-02-16T11:04:23.088Z,53.72
2023-02-16T11:09:22.931Z,50.95
2023-02-16T11:14:22.741Z,50.14
2023-02-16T11:19:22.700Z,55.71
2023-02-16T11:24:22.544Z,61.13
2023-02-16T11:29:22.509Z,62.93
2023-02-16T11:34:22.448Z,66.42
2023-02-16T11:39:22.379Z,68.42
2023-02-16T11:44:22.338Z,68.63
2023-02-16T11:49:22.235Z,68.69
2023-02-16T11:54:22.194Z,69.89
2023-02-16T11:59:22.088Z,69.96
2023-02-16T12:04:22.024Z,68.42
2023-02-16T12:09:21.988Z,69.07
2023-02-16T12:14:21.919Z,70.84
2023-02-16T12:19:21.880Z,71.52
2023-02-16T12:24:21.789Z,74.32
2023-02-16T12:29:21.696Z,76.10
2023-02-16T12:34:21.607Z,75.66
2023-02-16T12:39:21.689Z,75.56
2023-02-16T12:44:21.521Z,76.65
2023-02-16T12:49:21.471Z,75.93
2023-02-16T12:54:21.334Z,75.73
2023-02-16T12:59:21.332Z,76.78
2023-02-16T13:04:21.235Z,77.33
2023-02-16T13:09:21.164Z,79.22
2023-02-16T13:14:21.138Z,79.93
2023-02-16T13:19:21.079Z,81.51
2023-02-16T13:24:20.978Z,81.20
2023-02-16T13:29:21.004Z,82.13
2023-02-16T13:34:20.899Z,83.91
2023-02-16T13:39:20.822Z,85.14
2023-02-16T13:44:20.729Z,84.01
2023-02-16T13:49:20.709Z,84.32
2023-02-16T13:54:20.580Z,84.32
2023-02-16T13:59:20.537Z,85.66
2023-02-16T14:04:20.473Z,85.90
2023-02-16T14:09:20.415Z,86.42
2023-02-16T14:14:20.301Z,88.17
2023-02-16T14:19:20.276Z,88.82
2023-02-16T14:24:20.264Z,89.54
2023-02-16T14:29:20.141Z,90.20
2023-02-16T14:34:20.113Z,91.02
2023-02-16T14:39:21.953Z,91.53
2023-02-16T14:44:19.924Z,91.85
2023-02-16T14:49:19.876Z,91.64
2023-02-16T14:54:19.945Z,92.36
2023-02-16T14:59:19.738Z,93.74
2023-02-16T15:04:19.710Z,93.49
2023-02-16T15:09:19.657Z,92.77
2023-02-16T15:14:19.521Z,92.05
2023-02-16T15:19:21.173Z,92.46
2023-02-16T15:24:19.396Z,92.11
2023-02-16T15:29:19.336Z,91.29
2023-02-16T15:34:19.316Z,90.98
2023-02-16T15:39:21.317Z,90.20
2023-02-16T15:44:19.167Z,89.38
2023-02-16T15:49:19.090Z,89.38
2023-02-16T15:54:19.009Z,89.79
2023-02-16T15:59:18.943Z,88.56
2023-02-16T16:04:18.874Z,87.84
2023-02-16T16:09:18.811Z,88.56
2023-02-16T16:14:18.825Z,88.35
2023-02-16T16:19:18.649Z,88.86
2023-02-16T16:24:18.588Z,88.35
2023-02-16T16:29:18.534Z,88.14
2023-02-16T16:34:18.474Z,88.14
2023-02-16T16:39:18.430Z,88.56
2023-02-16T16:44:18.337Z,89.31
2023-02-16T16:49:18.263Z,89.11
2023-02-16T16:54:18.212Z,88.70
2023-02-16T16:59:18.215Z,88.35
2023-02-16T17:04:18.133Z,88.90
2023-02-16T17:09:18.015Z,89.62
2023-02-16T17:14:17.985Z,89.11
2023-02-16T17:19:17.880Z,89.42
2023-02-16T17:24:17.793Z,89.83
2023-02-16T17:29:17.734Z,89.94
2023-02-16T17:34:17.657Z,88.70
2023-02-16T17:39:17.610Z,89.52
2023-02-16T17:44:17.577Z,89.62
2023-02-16T17:49:17.486Z,90.28
2023-02-16T17:54:17.706Z,91.11
2023-02-16T17:59:17.354Z,91.83
2023-02-16T18:04:17.304Z,91.52
2023-02-16T18:09:17.241Z,91.42
2023-02-16T18:14:17.153Z,91.00
2023-02-16T18:19:17.162Z,90.39
2023-02-16T18:24:17.043Z,91.52
2023-02-16T18:29:16.979Z,90.49
2023-02-16T18:34:16.927Z,90.24
2023-02-16T18:39:16.836Z,90.75
2023-02-16T18:44:16.736Z,90.45
2023-02-16T18:49:16.716Z,91.58
2023-02-16T18:54:16.609Z,92.55
2023-02-16T18:59:16.573Z,92.34
2023-02-16T19:04:16.535Z,92.76
2023-02-16T19:09:16.600Z,92.55
2023-02-16T19:14:16.366Z,93.68
2023-02-16T19:19:16.371Z,94.20
2023-02-16T19:24:16.261Z,93.88
2023-02-16T19:29:16.187Z,94.09
2023-02-16T19:34:16.103Z,93.68
2023-02-16T19:39:16.052Z,93.37
2023-02-16T19:44:15.977Z,92.92
2023-02-16T19:49:16.002Z,92.30
2023-02-16T19:54:15.877Z,92.30
2023-02-16T19:59:15.797Z,91.64
2023-02-16T20:04:15.665Z,90.92
2023-02-16T20:09:15.644Z,90.51
2023-02-16T20:14:15.559Z,90.72
2023-02-16T20:19:15.501Z,90.30
2023-02-16T20:24:15.437Z,90.67
2023-02-16T20:29:15.426Z,90.36
2023-02-16T20:34:15.278Z,90.36
2023-02-16T20:39:15.290Z,90.36
2023-02-16T20:44:15.169Z,90.78
2023-02-16T20:49:15.166Z,91.08
2023-02-16T20:54:15.018Z,90.98
2023-02-16T20:59:15.037Z,90.98
2023-02-16T21:04:14.890Z,91.08
2023-02-16T21:09:14.898Z,91.29
2023-02-16T21:14:14.750Z,91.49
2023-02-16T21:19:22.934Z,91.60
2023-02-16T21:24:15.693Z,91.80
2023-02-16T21:29:14.597Z,92.52
2023-02-16T21:34:14.511Z,93.55
2023-02-16T21:39:14.451Z,94.37
2023-02-16T21:44:14.395Z,96.17
2023-02-16T21:49:14.296Z,96.89
2023-02-16T21:54:14.700Z,97.40
2023-02-16T21:59:14.181Z,98.94
2023-02-16T22:04:14.197Z,99.91
2023-02-16T22:09:14.074Z,99.99
2023-02-16T22:14:13.964Z,99.99
2023-02-16T22:19:13.931Z,99.99
2023-02-16T22:24:13.843Z,99.99
2023-02-16T22:29:13.788Z,99.99
2023-02-16T22:34:13.722Z,99.99
2023-02-16T22:39:13.690Z,99.99
2023-02-16T22:44:13.580Z,99.99
2023-02-16T22:49:13.539Z,99.99
2023-02-16T22:54:13.433Z,99.99
2023-02-16T22:59:13.402Z,99.99
2023-02-16T23:04:13.450Z,99.99
2023-02-16T23:09:13.288Z,99.99
2023-02-16T23:14:13.173Z,99.99
2023-02-16T23:19:13.187Z,99.99
2023-02-16T23:24:13.029Z,99.99
2023-02-16T23:29:12.997Z,99.99
2023-02-16T23:34:12.956Z,99.99
2023-02-16T23:39:12.887Z,99.99
2023-02-16T23:44:12.788Z,99.99
2023-02-16T23:49:12.723Z,99.99
2023-02-16T23:54:12.699Z,99.99
2023-02-16T23:59:12.603Z,99.99
